sensor_id;sensor_type;location;lat;lon;timestamp;temperature;humidity
16136;DHT22;8173;48.354;9.248;2023-02-11T00:01:25;-5.90;99.90
16136;DHT22;8173;48.354;9.248;2023-02-11T00:03:54;-5.80;99.90
16136;DHT22;8173;48.354;9.248;2023-02-11T00:06:21;-5.80;99.90
16136;DHT22;8173;48.354;9.248;2023-02-11T00:08:48;-5.80;99.90
16136;DHT22;8173;48.354;9.248;2023-02-11T00:11:17;-5.80;99.90
16136;DHT22;8173;48.354;9.248;2023-02-11T00:13:45;-5.80;99.90
16136;DHT22;8173;48.354;9.248;2023-02-11T00:16:14;-5.80;99.90
16136;DHT22;8173;48.354;9.248;2023-02-11T00:18:41;-5.80;99.90
16136;DHT22;8173;48.354;9.248;2023-02-11T00:21:11;-5.90;99.90
16136;DHT22;8173;48.354;9.248;2023-02-11T00:23:38;-5.90;99.90
16136;DHT22;8173;48.354;9.248;2023-02-11T00:26:11;-5.80;99.90
16136;DHT22;8173;48.354;9.248;2023-02-11T00:28:38;-5.70;99.90
16136;DHT22;8173;48.354;9.248;2023-02-11T00:31:04;-5.90;99.90
16136;DHT22;8173;48.354;9.248;2023-02-11T00:33:31;-6.00;99.90
16136;DHT22;8173;48.354;9.248;2023-02-11T00:35:58;-6.00;99.90
16136;DHT22;8173;48.354;9.248;2023-02-11T00:38:30;-6.00;99.90
16136;DHT22;8173;48.354;9.248;2023-02-11T00:40:56;-6.00;99.90
16136;DHT22;8173;48.354;9.248;2023-02-11T00:43:23;-6.00;99.90
16136;DHT22;8173;48.354;9.248;2023-02-11T00:45:50;-5.90;99.90
16136;DHT22;8173;48.354;9.248;2023-02-11T00:48:17;-6.00;99.90
16136;DHT22;8173;48.354;9.248;2023-02-11T00:50:43;-6.00;99.90
16136;DHT22;8173;48.354;9.248;2023-02-11T00:53:10;-6.00;99.90
16136;DHT22;8173;48.354;9.248;2023-02-11T00:55:38;-6.00;99.90
16136;DHT22;8173;48.354;9.248;2023-02-11T00:58:05;-6.10;99.90
16136;DHT22;8173;48.354;9.248;2023-02-11T01:00:32;-6.20;99.90
16136;DHT22;8173;48.354;9.248;2023-02-11T01:02:58;-6.30;99.90
16136;DHT22;8173;48.354;9.248;2023-02-11T01:05:25;-6.20;99.90
16136;DHT22;8173;48.354;9.248;2023-02-11T01:07:52;-6.00;99.90
16136;DHT22;8173;48.354;9.248;2023-02-11T01:10:18;-5.90;99.90
16136;DHT22;8173;48.354;9.248;2023-02-11T01:12:47;-6.00;99.90
16136;DHT22;8173;48.354;9.248;2023-02-11T01:15:16;-6.10;99.90
16136;DHT22;8173;48.354;9.248;2023-02-11T01:17:43;-6.30;99.90
16136;DHT22;8173;48.354;9.248;2023-02-11T01:20:13;-6.50;99.90
16136;DHT22;8173;48.354;9.248;2023-02-11T01:22:40;-6.70;99.90
16136;DHT22;8173;48.354;9.248;2023-02-11T01:25:08;-6.80;99.90
16136;DHT22;8173;48.354;9.248;2023-02-11T01:27:35;-6.80;99.90
16136;DHT22;8173;48.354;9.248;2023-02-11T01:30:04;-6.70;99.90
16136;DHT22;8173;48.354;9.248;2023-02-11T01:32:32;-6.80;99.90
16136;DHT22;8173;48.354;9.248;2023-02-11T01:34:58;-6.80;99.90
16136;DHT22;8173;48.354;9.248;2023-02-11T01:37:25;-6.80;99.90
16136;DHT22;8173;48.354;9.248;2023-02-11T01:39:52;-6.70;99.90
16136;DHT22;8173;48.354;9.248;2023-02-11T01:42:22;-6.70;99.90
16136;DHT22;8173;48.354;9.248;2023-02-11T01:44:49;-6.80;99.90
16136;DHT22;8173;48.354;9.248;2023-02-11T01:47:18;-6.80;99.90
16136;DHT22;8173;48.354;9.248;2023-02-11T01:49:48;-6.90;99.90
16136;DHT22;8173;48.354;9.248;2023-02-11T01:52:18;-7.00;99.90
16136;DHT22;8173;48.354;9.248;2023-02-11T01:54:50;-6.90;99.90
16136;DHT22;8173;48.354;9.248;2023-02-11T01:57:36;-6.90;99.90
16136;DHT22;8173;48.354;9.248;2023-02-11T02:00:07;-6.90;99.90
16136;DHT22;8173;48.354;9.248;2023-02-11T02:02:42;-6.80;99.90
16136;DHT22;8173;48.354;9.248;2023-02-11T02:05:17;-6.70;99.90
16136;DHT22;8173;48.354;9.248;2023-02-11T02:07:51;-6.80;99.90
16136;DHT22;8173;48.354;9.248;2023-02-11T02:10:22;-6.90;99.90
16136;DHT22;8173;48.354;9.248;2023-02-11T02:12:50;-6.90;99.90
16136;DHT22;8173;48.354;9.248;2023-02-11T02:15:19;-7.00;99.90
16136;DHT22;8173;48.354;9.248;2023-02-11T02:17:56;-7.10;99.90
16136;DHT22;8173;48.354;9.248;2023-02-11T02:20:51;-7.10;99.90
16136;DHT22;8173;48.354;9.248;2023-02-11T02:23:33;-7.20;99.90
16136;DHT22;8173;48.354;9.248;2023-02-11T02:26:18;-7.20;99.90
16136;DHT22;8173;48.354;9.248;2023-02-11T02:32:19;-7.10;99.90
16136;DHT22;8173;48.354;9.248;2023-02-11T02:34:52;-6.90;99.90
16136;DHT22;8173;48.354;9.248;2023-02-11T02:37:26;-6.70;99.90
16136;DHT22;8173;48.354;9.248;2023-02-11T02:39:56;-6.70;99.90
16136;DHT22;8173;48.354;9.248;2023-02-11T02:42:25;-6.70;99.90
16136;DHT22;8173;48.354;9.248;2023-02-11T02:44:52;-6.90;99.90
16136;DHT22;8173;48.354;9.248;2023-02-11T02:47:22;-6.90;99.90
16136;DHT22;8173;48.354;9.248;2023-02-11T02:49:49;-7.00;99.90
16136;DHT22;8173;48.354;9.248;2023-02-11T02:52:26;-7.00;99.90
16136;DHT22;8173;48.354;9.248;2023-02-11T02:55:08;-6.90;99.90
16136;DHT22;8173;48.354;9.248;2023-02-11T02:57:47;-6.90;99.90
16136;DHT22;8173;48.354;9.248;2023-02-11T03:00:23;-6.70;99.90
16136;DHT22;8173;48.354;9.248;2023-02-11T03:03:09;-6.60;99.90
16136;DHT22;8173;48.354;9.248;2023-02-11T03:05:47;-6.60;99.90
16136;DHT22;8173;48.354;9.248;2023-02-11T03:08:17;-6.60;99.90
16136;DHT22;8173;48.354;9.248;2023-02-11T03:10:49;-6.50;99.90
16136;DHT22;8173;48.354;9.248;2023-02-11T03:13:19;-6.60;99.90
16136;DHT22;8173;48.354;9.248;2023-02-11T03:15:49;-6.50;99.90
16136;DHT22;8173;48.354;9.248;2023-02-11T03:18:21;-6.60;99.90
16136;DHT22;8173;48.354;9.248;2023-02-11T03:20:50;-6.70;99.90
16136;DHT22;8173;48.354;9.248;2023-02-11T03:23:20;-6.70;99.90
16136;DHT22;8173;48.354;9.248;2023-02-11T03:25:51;-6.70;99.90
16136;DHT22;8173;48.354;9.248;2023-02-11T03:28:24;-6.60;99.90
16136;DHT22;8173;48.354;9.248;2023-02-11T03:30:58;-6.60;99.90
16136;DHT22;8173;48.354;9.248;2023-02-11T03:33:37;-6.70;99.90
16136;DHT22;8173;48.354;9.248;2023-02-11T03:36:07;-6.80;99.90
16136;DHT22;8173;48.354;9.248;2023-02-11T03:38:38;-6.80;99.90
16136;DHT22;8173;48.354;9.248;2023-02-11T03:41:09;-6.80;99.90
16136;DHT22;8173;48.354;9.248;2023-02-11T03:43:41;-6.90;99.90
16136;DHT22;8173;48.354;9.248;2023-02-11T03:46:11;-6.80;99.90
16136;DHT22;8173;48.354;9.248;2023-02-11T03:48:43;-6.70;99.90
16136;DHT22;8173;48.354;9.248;2023-02-11T03:51:11;-6.60;99.90
16136;DHT22;8173;48.354;9.248;2023-02-11T03:53:40;-6.50;99.90
16136;DHT22;8173;48.354;9.248;2023-02-11T03:56:12;-6.50;99.90
16136;DHT22;8173;48.354;9.248;2023-02-11T03:58:43;-6.50;99.90
16136;DHT22;8173;48.354;9.248;2023-02-11T04:01:09;-6.50;99.90
16136;DHT22;8173;48.354;9.248;2023-02-11T04:03:37;-6.50;99.90
16136;DHT22;8173;48.354;9.248;2023-02-11T04:06:05;-6.60;99.90
16136;DHT22;8173;48.354;9.248;2023-02-11T04:08:32;-6.60;99.90
16136;DHT22;8173;48.354;9.248;2023-02-11T04:10:59;-6.60;99.90
16136;DHT22;8173;48.354;9.248;2023-02-11T04:13:26;-6.50;99.90
16136;DHT22;8173;48.354;9.248;2023-02-11T04:15:52;-6.40;99.90
16136;DHT22;8173;48.354;9.248;2023-02-11T04:18:19;-6.40;99.90
16136;DHT22;8173;48.354;9.248;2023-02-11T04:20:47;-6.40;99.90
16136;DHT22;8173;48.354;9.248;2023-02-11T04:23:15;-6.50;99.90
16136;DHT22;8173;48.354;9.248;2023-02-11T04:25:42;-6.40;99.90
16136;DHT22;8173;48.354;9.248;2023-02-11T04:28:09;-6.40;99.90
16136;DHT22;8173;48.354;9.248;2023-02-11T04:30:35;-6.40;99.90
16136;DHT22;8173;48.354;9.248;2023-02-11T04:33:02;-6.40;99.90
16136;DHT22;8173;48.354;9.248;2023-02-11T04:35:29;-6.30;99.90
16136;DHT22;8173;48.354;9.248;2023-02-11T04:37:56;-6.40;99.90
16136;DHT22;8173;48.354;9.248;2023-02-11T04:40:24;-6.40;99.90
16136;DHT22;8173;48.354;9.248;2023-02-11T04:42:50;-6.50;99.90
16136;DHT22;8173;48.354;9.248;2023-02-11T04:45:17;-6.70;99.90
16136;DHT22;8173;48.354;9.248;2023-02-11T04:47:44;-6.80;99.90
16136;DHT22;8173;48.354;9.248;2023-02-11T04:50:10;-6.70;99.90
16136;DHT22;8173;48.354;9.248;2023-02-11T04:52:37;-6.70;99.90
16136;DHT22;8173;48.354;9.248;2023-02-11T04:55:04;-6.60;99.90
16136;DHT22;8173;48.354;9.248;2023-02-11T04:57:33;-6.50;99.90
16136;DHT22;8173;48.354;9.248;2023-02-11T04:59:59;-6.70;99.90
16136;DHT22;8173;48.354;9.248;2023-02-11T05:02:26;-6.70;99.90
16136;DHT22;8173;48.354;9.248;2023-02-11T05:04:53;-6.70;99.90
16136;DHT22;8173;48.354;9.248;2023-02-11T05:07:19;-6.60;99.90
16136;DHT22;8173;48.354;9.248;2023-02-11T05:09:46;-6.40;99.90
16136;DHT22;8173;48.354;9.248;2023-02-11T05:12:13;-6.40;99.90
16136;DHT22;8173;48.354;9.248;2023-02-11T05:14:41;-6.40;99.90
16136;DHT22;8173;48.354;9.248;2023-02-11T05:17:08;-6.40;99.90
16136;DHT22;8173;48.354;9.248;2023-02-11T05:19:34;-6.40;99.90
16136;DHT22;8173;48.354;9.248;2023-02-11T05:22:01;-6.40;99.90
16136;DHT22;8173;48.354;9.248;2023-02-11T05:24:28;-6.30;99.90
16136;DHT22;8173;48.354;9.248;2023-02-11T05:26:55;-6.30;99.90
16136;DHT22;8173;48.354;9.248;2023-02-11T05:29:21;-6.40;99.90
16136;DHT22;8173;48.354;9.248;2023-02-11T05:31:49;-6.40;99.90
16136;DHT22;8173;48.354;9.248;2023-02-11T05:34:17;-6.50;99.90
16136;DHT22;8173;48.354;9.248;2023-02-11T05:36:43;-6.50;99.90
16136;DHT22;8173;48.354;9.248;2023-02-11T05:39:10;-6.50;99.90
16136;DHT22;8173;48.354;9.248;2023-02-11T05:41:37;-6.40;99.90
16136;DHT22;8173;48.354;9.248;2023-02-11T05:44:03;-6.30;99.90
16136;DHT22;8173;48.354;9.248;2023-02-11T05:48:59;-6.00;99.90
16136;DHT22;8173;48.354;9.248;2023-02-11T05:51:25;-6.00;99.90
16136;DHT22;8173;48.354;9.248;2023-02-11T05:53:52;-5.90;99.90
16136;DHT22;8173;48.354;9.248;2023-02-11T05:56:19;-5.70;99.90
16136;DHT22;8173;48.354;9.248;2023-02-11T05:58:45;-5.70;99.90
16136;DHT22;8173;48.354;9.248;2023-02-11T06:01:12;-5.80;99.90
16136;DHT22;8173;48.354;9.248;2023-02-11T06:03:39;-6.00;99.90
16136;DHT22;8173;48.354;9.248;2023-02-11T06:06:10;-6.10;99.90
16136;DHT22;8173;48.354;9.248;2023-02-11T06:08:37;-6.10;99.90
16136;DHT22;8173;48.354;9.248;2023-02-11T06:11:03;-6.10;99.90
16136;DHT22;8173;48.354;9.248;2023-02-11T06:13:30;-6.10;99.90
16136;DHT22;8173;48.354;9.248;2023-02-11T06:15:58;-6.10;99.90
16136;DHT22;8173;48.354;9.248;2023-02-11T06:18:25;-6.10;99.90
16136;DHT22;8173;48.354;9.248;2023-02-11T06:20:52;-6.10;99.90
16136;DHT22;8173;48.354;9.248;2023-02-11T06:23:20;-5.90;99.90
16136;DHT22;8173;48.354;9.248;2023-02-11T06:25:47;-5.80;99.90
16136;DHT22;8173;48.354;9.248;2023-02-11T06:28:14;-5.60;99.90
16136;DHT22;8173;48.354;9.248;2023-02-11T06:30:40;-4.20;99.90
16136;DHT22;8173;48.354;9.248;2023-02-11T06:33:07;-5.40;99.90
16136;DHT22;8173;48.354;9.248;2023-02-11T06:35:34;-5.20;99.90
16136;DHT22;8173;48.354;9.248;2023-02-11T06:38:01;-5.10;99.90
16136;DHT22;8173;48.354;9.248;2023-02-11T06:40:29;-5.00;99.90
16136;DHT22;8173;48.354;9.248;2023-02-11T06:42:56;-5.00;99.90
16136;DHT22;8173;48.354;9.248;2023-02-11T06:45:22;-4.90;99.90
16136;DHT22;8173;48.354;9.248;2023-02-11T06:47:50;-4.80;99.90
16136;DHT22;8173;48.354;9.248;2023-02-11T06:50:17;-4.70;99.90
16136;DHT22;8173;48.354;9.248;2023-02-11T06:52:44;-4.70;99.90
16136;DHT22;8173;48.354;9.248;2023-02-11T06:55:11;-4.80;99.90
16136;DHT22;8173;48.354;9.248;2023-02-11T06:57:39;-4.80;99.90
16136;DHT22;8173;48.354;9.248;2023-02-11T07:00:07;-4.80;99.90
16136;DHT22;8173;48.354;9.248;2023-02-11T07:02:34;-4.80;99.90
16136;DHT22;8173;48.354;9.248;2023-02-11T07:05:01;-4.70;99.90
16136;DHT22;8173;48.354;9.248;2023-02-11T07:07:28;-4.60;99.90
16136;DHT22;8173;48.354;9.248;2023-02-11T07:09:56;-4.50;99.90
16136;DHT22;8173;48.354;9.248;2023-02-11T07:12:22;-4.40;99.90
16136;DHT22;8173;48.354;9.248;2023-02-11T07:14:50;-4.30;99.90
16136;DHT22;8173;48.354;9.248;2023-02-11T07:17:17;-4.30;99.90
16136;DHT22;8173;48.354;9.248;2023-02-11T07:19:44;-4.20;99.90
16136;DHT22;8173;48.354;9.248;2023-02-11T07:22:12;-4.10;99.90
16136;DHT22;8173;48.354;9.248;2023-02-11T07:24:39;-4.00;99.90
16136;DHT22;8173;48.354;9.248;2023-02-11T07:27:05;-3.90;99.90
16136;DHT22;8173;48.354;9.248;2023-02-11T07:29:32;-3.90;99.90
16136;DHT22;8173;48.354;9.248;2023-02-11T07:32:00;-3.80;99.90
16136;DHT22;8173;48.354;9.248;2023-02-11T07:34:27;-3.70;99.90
16136;DHT22;8173;48.354;9.248;2023-02-11T07:36:54;-3.60;99.90
16136;DHT22;8173;48.354;9.248;2023-02-11T07:39:20;-3.50;99.90
16136;DHT22;8173;48.354;9.248;2023-02-11T07:41:51;-3.30;99.90
16136;DHT22;8173;48.354;9.248;2023-02-11T07:44:18;-3.30;99.90
16136;DHT22;8173;48.354;9.248;2023-02-11T07:46:45;-3.30;99.90
16136;DHT22;8173;48.354;9.248;2023-02-11T07:49:15;-3.20;99.90
16136;DHT22;8173;48.354;9.248;2023-02-11T07:51:42;-3.20;99.90
16136;DHT22;8173;48.354;9.248;2023-02-11T07:54:10;-3.10;99.90
16136;DHT22;8173;48.354;9.248;2023-02-11T08:01:31;-3.10;99.90
16136;DHT22;8173;48.354;9.248;2023-02-11T08:04:00;-3.10;99.90
16136;DHT22;8173;48.354;9.248;2023-02-11T08:06:30;-3.00;99.90
16136;DHT22;8173;48.354;9.248;2023-02-11T08:09:03;-3.00;99.90
16136;DHT22;8173;48.354;9.248;2023-02-11T08:13:57;-2.60;99.90
16136;DHT22;8173;48.354;9.248;2023-02-11T08:16:25;-1.80;99.90
16136;DHT22;8173;48.354;9.248;2023-02-11T08:18:54;-1.90;99.90
16136;DHT22;8173;48.354;9.248;2023-02-11T08:21:21;-1.60;99.90
16136;DHT22;8173;48.354;9.248;2023-02-11T08:23:50;-1.40;99.90
16136;DHT22;8173;48.354;9.248;2023-02-11T08:26:19;-0.90;99.90
16136;DHT22;8173;48.354;9.248;2023-02-11T08:28:47;0.00;99.90
16136;DHT22;8173;48.354;9.248;2023-02-11T08:31:16;0.60;99.90
16136;DHT22;8173;48.354;9.248;2023-02-11T08:33:43;0.60;99.90
16136;DHT22;8173;48.354;9.248;2023-02-11T08:36:12;0.50;99.90
16136;DHT22;8173;48.354;9.248;2023-02-11T08:38:39;0.50;99.90
16136;DHT22;8173;48.354;9.248;2023-02-11T08:41:08;1.20;99.90
16136;DHT22;8173;48.354;9.248;2023-02-11T08:43:35;1.60;99.90
16136;DHT22;8173;48.354;9.248;2023-02-11T08:46:06;2.10;99.90
16136;DHT22;8173;48.354;9.248;2023-02-11T08:48:33;2.90;99.90
16136;DHT22;8173;48.354;9.248;2023-02-11T08:51:05;3.60;99.90
16136;DHT22;8173;48.354;9.248;2023-02-11T08:53:32;4.60;99.90
16136;DHT22;8173;48.354;9.248;2023-02-11T08:55:59;5.50;99.90
16136;DHT22;8173;48.354;9.248;2023-02-11T08:58:27;6.00;99.90
16136;DHT22;8173;48.354;9.248;2023-02-11T09:00:54;7.10;99.90
16136;DHT22;8173;48.354;9.248;2023-02-11T09:03:20;7.10;99.90
16136;DHT22;8173;48.354;9.248;2023-02-11T09:05:48;7.80;99.90
16136;DHT22;8173;48.354;9.248;2023-02-11T09:08:17;7.80;99.90
16136;DHT22;8173;48.354;9.248;2023-02-11T09:10:45;8.10;99.90
16136;DHT22;8173;48.354;9.248;2023-02-11T09:13:12;8.30;99.90
16136;DHT22;8173;48.354;9.248;2023-02-11T09:15:44;8.40;99.90
16136;DHT22;8173;48.354;9.248;2023-02-11T09:18:10;8.40;99.90
16136;DHT22;8173;48.354;9.248;2023-02-11T09:20:37;8.40;99.90
16136;DHT22;8173;48.354;9.248;2023-02-11T09:23:04;8.50;99.90
16136;DHT22;8173;48.354;9.248;2023-02-11T09:25:31;8.60;99.90
16136;DHT22;8173;48.354;9.248;2023-02-11T09:27:57;8.60;99.90
16136;DHT22;8173;48.354;9.248;2023-02-11T09:30:24;8.20;99.90
16136;DHT22;8173;48.354;9.248;2023-02-11T09:32:52;7.40;99.90
16136;DHT22;8173;48.354;9.248;2023-02-11T09:35:19;6.10;99.90
16136;DHT22;8173;48.354;9.248;2023-02-11T09:37:46;5.00;99.90
16136;DHT22;8173;48.354;9.248;2023-02-11T09:40:14;4.60;99.90
16136;DHT22;8173;48.354;9.248;2023-02-11T09:42:46;5.10;99.90
16136;DHT22;8173;48.354;9.248;2023-02-11T09:45:17;5.70;99.90
16136;DHT22;8173;48.354;9.248;2023-02-11T09:47:50;6.10;99.90
16136;DHT22;8173;48.354;9.248;2023-02-11T09:50:23;6.30;99.90
16136;DHT22;8173;48.354;9.248;2023-02-11T09:52:56;6.60;99.90
16136;DHT22;8173;48.354;9.248;2023-02-11T09:55:26;6.70;99.90
16136;DHT22;8173;48.354;9.248;2023-02-11T09:57:54;7.00;99.90
16136;DHT22;8173;48.354;9.248;2023-02-11T10:00:25;7.30;99.90
16136;DHT22;8173;48.354;9.248;2023-02-11T10:03:19;7.10;99.90
16136;DHT22;8173;48.354;9.248;2023-02-11T10:06:02;7.20;99.90
16136;DHT22;8173;48.354;9.248;2023-02-11T10:08:40;7.50;99.90
16136;DHT22;8173;48.354;9.248;2023-02-11T10:11:12;8.00;99.90
16136;DHT22;8173;48.354;9.248;2023-02-11T10:13:51;8.30;99.90
16136;DHT22;8173;48.354;9.248;2023-02-11T10:16:31;8.30;99.90
16136;DHT22;8173;48.354;9.248;2023-02-11T10:19:12;8.20;99.90
16136;DHT22;8173;48.354;9.248;2023-02-11T10:21:52;7.30;99.90
16136;DHT22;8173;48.354;9.248;2023-02-11T10:24:23;7.60;99.90
16136;DHT22;8173;48.354;9.248;2023-02-11T10:26:52;7.50;99.90
16136;DHT22;8173;48.354;9.248;2023-02-11T10:29:33;10.20;99.90
16136;DHT22;8173;48.354;9.248;2023-02-11T10:32:04;7.60;99.90
16136;DHT22;8173;48.354;9.248;2023-02-11T10:34:32;7.60;99.90
16136;DHT22;8173;48.354;9.248;2023-02-11T10:37:04;7.40;99.90
16136;DHT22;8173;48.354;9.248;2023-02-11T10:42:01;8.30;99.90
16136;DHT22;8173;48.354;9.248;2023-02-11T10:44:33;8.20;99.90
16136;DHT22;8173;48.354;9.248;2023-02-11T10:47:06;9.60;99.90
16136;DHT22;8173;48.354;9.248;2023-02-11T10:49:36;8.60;99.90
16136;DHT22;8173;48.354;9.248;2023-02-11T10:52:23;9.00;99.90
16136;DHT22;8173;48.354;9.248;2023-02-11T10:55:03;9.30;99.90
16136;DHT22;8173;48.354;9.248;2023-02-11T10:57:33;9.70;99.90
16136;DHT22;8173;48.354;9.248;2023-02-11T11:00:07;9.80;99.90
16136;DHT22;8173;48.354;9.248;2023-02-11T11:02:52;9.60;99.90
16136;DHT22;8173;48.354;9.248;2023-02-11T11:05:25;9.20;99.90
16136;DHT22;8173;48.354;9.248;2023-02-11T11:07:56;9.10;99.90
16136;DHT22;8173;48.354;9.248;2023-02-11T11:10:40;9.00;99.90
16136;DHT22;8173;48.354;9.248;2023-02-11T11:13:27;9.10;99.90
16136;DHT22;8173;48.354;9.248;2023-02-11T11:16:18;10.00;99.90
16136;DHT22;8173;48.354;9.248;2023-02-11T11:18:47;8.50;99.90
16136;DHT22;8173;48.354;9.248;2023-02-11T11:21:16;8.10;99.90
16136;DHT22;8173;48.354;9.248;2023-02-11T11:23:52;7.60;99.90
16136;DHT22;8173;48.354;9.248;2023-02-11T11:26:21;7.40;99.90
16136;DHT22;8173;48.354;9.248;2023-02-11T11:28:59;7.90;99.90
16136;DHT22;8173;48.354;9.248;2023-02-11T11:31:29;8.70;99.90
16136;DHT22;8173;48.354;9.248;2023-02-11T11:33:58;9.10;99.90
16136;DHT22;8173;48.354;9.248;2023-02-11T11:36:34;9.10;99.90
16136;DHT22;8173;48.354;9.248;2023-02-11T11:39:18;9.40;99.90
16136;DHT22;8173;48.354;9.248;2023-02-11T11:41:51;9.80;99.90
16136;DHT22;8173;48.354;9.248;2023-02-11T11:44:28;9.90;99.90
16136;DHT22;8173;48.354;9.248;2023-02-11T11:47:18;10.10;99.90
16136;DHT22;8173;48.354;9.248;2023-02-11T11:49:49;10.50;99.90
16136;DHT22;8173;48.354;9.248;2023-02-11T11:52:21;11.40;99.90
16136;DHT22;8173;48.354;9.248;2023-02-11T11:55:01;10.70;99.90
16136;DHT22;8173;48.354;9.248;2023-02-11T11:57:36;10.60;99.90
16136;DHT22;8173;48.354;9.248;2023-02-11T12:05:51;11.40;99.90
16136;DHT22;8173;48.354;9.248;2023-02-11T12:08:25;11.40;99.90
16136;DHT22;8173;48.354;9.248;2023-02-11T12:11:01;11.60;99.90
16136;DHT22;8173;48.354;9.248;2023-02-11T12:13:39;11.80;99.90
16136;DHT22;8173;48.354;9.248;2023-02-11T12:16:19;11.70;99.90
16136;DHT22;8173;48.354;9.248;2023-02-11T12:19:23;10.00;99.90
16136;DHT22;8173;48.354;9.248;2023-02-11T12:22:02;9.90;99.90
16136;DHT22;8173;48.354;9.248;2023-02-11T12:24:45;9.70;99.90
16136;DHT22;8173;48.354;9.248;2023-02-11T12:27:20;10.30;99.90
16136;DHT22;8173;48.354;9.248;2023-02-11T12:29:59;10.60;99.90
16136;DHT22;8173;48.354;9.248;2023-02-11T12:32:34;10.60;99.90
16136;DHT22;8173;48.354;9.248;2023-02-11T12:35:27;10.50;99.90
16136;DHT22;8173;48.354;9.248;2023-02-11T12:38:22;10.30;99.90
16136;DHT22;8173;48.354;9.248;2023-02-11T12:41:01;9.90;99.90
16136;DHT22;8173;48.354;9.248;2023-02-11T12:43:35;9.60;99.90
16136;DHT22;8173;48.354;9.248;2023-02-11T12:46:10;9.30;99.90
16136;DHT22;8173;48.354;9.248;2023-02-11T12:49:16;9.20;99.90
16136;DHT22;8173;48.354;9.248;2023-02-11T12:52:05;9.00;99.90
16136;DHT22;8173;48.354;9.248;2023-02-11T12:54:40;8.90;99.90
16136;DHT22;8173;48.354;9.248;2023-02-11T12:57:13;8.70;99.90
16136;DHT22;8173;48.354;9.248;2023-02-11T12:59:52;8.70;99.90
16136;DHT22;8173;48.354;9.248;2023-02-11T13:02:27;8.70;99.90
16136;DHT22;8173;48.354;9.248;2023-02-11T13:04:58;8.70;99.90
16136;DHT22;8173;48.354;9.248;2023-02-11T13:07:30;8.60;99.90
16136;DHT22;8173;48.354;9.248;2023-02-11T13:10:03;8.70;99.90
16136;DHT22;8173;48.354;9.248;2023-02-11T13:12:32;8.60;99.90
16136;DHT22;8173;48.354;9.248;2023-02-11T13:15:19;8.50;99.90
16136;DHT22;8173;48.354;9.248;2023-02-11T13:17:53;8.60;99.90
16136;DHT22;8173;48.354;9.248;2023-02-11T13:20:33;8.60;99.90
16136;DHT22;8173;48.354;9.248;2023-02-11T13:23:10;8.70;99.90
16136;DHT22;8173;48.354;9.248;2023-02-11T13:25:42;8.60;99.90
16136;DHT22;8173;48.354;9.248;2023-02-11T13:31:03;8.70;99.90
16136;DHT22;8173;48.354;9.248;2023-02-11T13:33:34;8.70;99.90
16136;DHT22;8173;48.354;9.248;2023-02-11T13:36:15;8.80;99.90
16136;DHT22;8173;48.354;9.248;2023-02-11T13:38:55;8.90;99.90
16136;DHT22;8173;48.354;9.248;2023-02-11T13:41:26;8.90;99.90
16136;DHT22;8173;48.354;9.248;2023-02-11T13:44:00;8.90;99.90
16136;DHT22;8173;48.354;9.248;2023-02-11T13:46:47;8.90;99.90
16136;DHT22;8173;48.354;9.248;2023-02-11T13:49:20;8.80;99.90
16136;DHT22;8173;48.354;9.248;2023-02-11T13:51:48;8.80;99.90
16136;DHT22;8173;48.354;9.248;2023-02-11T13:54:22;8.80;99.90
16136;DHT22;8173;48.354;9.248;2023-02-11T13:57:29;8.70;99.90
16136;DHT22;8173;48.354;9.248;2023-02-11T13:59:58;8.60;99.90
16136;DHT22;8173;48.354;9.248;2023-02-11T14:02:30;8.50;99.90
16136;DHT22;8173;48.354;9.248;2023-02-11T14:05:27;8.30;99.90
16136;DHT22;8173;48.354;9.248;2023-02-11T14:08:18;8.00;99.90
16136;DHT22;8173;48.354;9.248;2023-02-11T14:11:03;7.80;99.90
16136;DHT22;8173;48.354;9.248;2023-02-11T14:13:34;7.70;99.90
16136;DHT22;8173;48.354;9.248;2023-02-11T14:16:06;8.00;99.90
16136;DHT22;8173;48.354;9.248;2023-02-11T14:18:59;8.30;99.90
16136;DHT22;8173;48.354;9.248;2023-02-11T14:21:35;8.40;99.90
16136;DHT22;8173;48.354;9.248;2023-02-11T14:24:44;8.40;99.90
16136;DHT22;8173;48.354;9.248;2023-02-11T14:27:17;8.30;99.90
16136;DHT22;8173;48.354;9.248;2023-02-11T14:29:54;8.10;99.90
16136;DHT22;8173;48.354;9.248;2023-02-11T14:32:37;8.10;99.90
16136;DHT22;8173;48.354;9.248;2023-02-11T14:35:11;8.40;99.90
16136;DHT22;8173;48.354;9.248;2023-02-11T14:37:47;8.50;99.90
16136;DHT22;8173;48.354;9.248;2023-02-11T14:40:24;8.70;99.90
16136;DHT22;8173;48.354;9.248;2023-02-11T14:42:53;8.80;99.90
16136;DHT22;8173;48.354;9.248;2023-02-11T14:45:23;8.60;99.90
16136;DHT22;8173;48.354;9.248;2023-02-11T14:47:57;8.20;99.90
16136;DHT22;8173;48.354;9.248;2023-02-11T14:50:32;7.90;99.90
16136;DHT22;8173;48.354;9.248;2023-02-11T14:53:00;7.50;99.90
16136;DHT22;8173;48.354;9.248;2023-02-11T14:55:30;7.50;99.90
16136;DHT22;8173;48.354;9.248;2023-02-11T14:58:13;7.40;99.90
16136;DHT22;8173;48.354;9.248;2023-02-11T15:00:47;7.40;99.90
16136;DHT22;8173;48.354;9.248;2023-02-11T15:03:26;7.50;99.90
16136;DHT22;8173;48.354;9.248;2023-02-11T15:05:56;7.30;99.90
16136;DHT22;8173;48.354;9.248;2023-02-11T15:08:24;7.60;99.90
16136;DHT22;8173;48.354;9.248;2023-02-11T15:10:52;7.10;99.90
16136;DHT22;8173;48.354;9.248;2023-02-11T15:13:23;7.00;99.90
16136;DHT22;8173;48.354;9.248;2023-02-11T15:15:58;7.00;99.90
16136;DHT22;8173;48.354;9.248;2023-02-11T15:18:33;6.90;99.90
16136;DHT22;8173;48.354;9.248;2023-02-11T15:21:02;6.80;99.90
16136;DHT22;8173;48.354;9.248;2023-02-11T15:23:29;6.80;99.90
16136;DHT22;8173;48.354;9.248;2023-02-11T15:25:57;6.80;99.90
16136;DHT22;8173;48.354;9.248;2023-02-11T15:28:30;6.80;99.90
16136;DHT22;8173;48.354;9.248;2023-02-11T15:31:00;6.70;99.90
16136;DHT22;8173;48.354;9.248;2023-02-11T15:33:27;6.60;99.90
16136;DHT22;8173;48.354;9.248;2023-02-11T15:35:56;6.60;99.90
16136;DHT22;8173;48.354;9.248;2023-02-11T15:38:25;6.40;99.90
16136;DHT22;8173;48.354;9.248;2023-02-11T15:40:54;6.30;99.90
16136;DHT22;8173;48.354;9.248;2023-02-11T15:43:21;6.20;99.90
16136;DHT22;8173;48.354;9.248;2023-02-11T15:45:58;6.10;99.90
16136;DHT22;8173;48.354;9.248;2023-02-11T15:48:33;5.90;99.90
16136;DHT22;8173;48.354;9.248;2023-02-11T15:51:03;5.70;99.90
16136;DHT22;8173;48.354;9.248;2023-02-11T15:53:36;5.60;99.90
16136;DHT22;8173;48.354;9.248;2023-02-11T15:56:10;5.50;99.90
16136;DHT22;8173;48.354;9.248;2023-02-11T15:58:42;5.40;99.90
16136;DHT22;8173;48.354;9.248;2023-02-11T16:01:10;5.20;99.90
16136;DHT22;8173;48.354;9.248;2023-02-11T16:03:37;5.10;99.90
16136;DHT22;8173;48.354;9.248;2023-02-11T16:06:20;5.00;99.90
16136;DHT22;8173;48.354;9.248;2023-02-11T16:09:02;4.90;99.90
16136;DHT22;8173;48.354;9.248;2023-02-11T16:11:31;4.80;99.90
16136;DHT22;8173;48.354;9.248;2023-02-11T16:13:59;4.60;99.90
16136;DHT22;8173;48.354;9.248;2023-02-11T16:16:28;4.50;99.90
16136;DHT22;8173;48.354;9.248;2023-02-11T16:18:57;4.40;99.90
16136;DHT22;8173;48.354;9.248;2023-02-11T16:21:29;4.30;99.90
16136;DHT22;8173;48.354;9.248;2023-02-11T16:24:00;4.20;99.90
16136;DHT22;8173;48.354;9.248;2023-02-11T16:26:30;4.10;99.90
16136;DHT22;8173;48.354;9.248;2023-02-11T16:29:06;4.00;99.90
16136;DHT22;8173;48.354;9.248;2023-02-11T16:31:35;3.80;99.90
16136;DHT22;8173;48.354;9.248;2023-02-11T16:34:14;3.60;99.90
16136;DHT22;8173;48.354;9.248;2023-02-11T16:36:42;3.50;99.90
16136;DHT22;8173;48.354;9.248;2023-02-11T16:39:10;3.40;99.90
16136;DHT22;8173;48.354;9.248;2023-02-11T16:41:37;3.30;99.90
16136;DHT22;8173;48.354;9.248;2023-02-11T16:44:04;3.20;99.90